BZN168 KTUS-KABQ
Flight info
| Callsign | BZN168 |
|---|---|
| Flight time | 0h 45m |
| Altitude | 37000 |
| Route | WLDKT4 SSO J104 TMACK/N0456F360 KALSE BRRTO1 |
| Aircraft | B738/M-SDE2E3FGHIRWXY/LB1 |
Departure
| Time | 2026-04-24 01:40 |
|---|---|
| Airport | Tucson International Airport (KTUS) |
Arrival
| Time | 2026-04-24 02:25 |
|---|---|
| Airport | Albuquerque International Sunport (KABQ) |
| Time | Latitude | Longitude | Altitude | Speed | Heading |
|---|---|---|---|---|---|
| 2026-04-24 01:08 | 32.11918 | -110.93790 | 2612 ft | 0 kts | 78° |
| 2026-04-24 01:14 | 32.11917 | -110.93790 | 2612 ft | 0 kts | 78° |
| 2026-04-24 01:17 | 32.11917 | -110.93791 | 2612 ft | 0 kts | 78° |
| 2026-04-24 01:24 | 32.11917 | -110.93793 | 2612 ft | 2 kts | 78° |
| 2026-04-24 01:24 | 32.11914 | -110.93812 | 2612 ft | 2 kts | 79° |
| 2026-04-24 01:25 | 32.11911 | -110.93831 | 2612 ft | 2 kts | 76° |
| 2026-04-24 01:25 | 32.11907 | -110.93850 | 2612 ft | 2 kts | 77° |
| 2026-04-24 01:25 | 32.11905 | -110.93858 | 2611 ft | 0 kts | 78° |
| 2026-04-24 01:26 | 32.11905 | -110.93857 | 2611 ft | 0 kts | 78° |
| 2026-04-24 01:27 | 32.11900 | -110.93852 | 2611 ft | 1 kts | 144° |
| 2026-04-24 01:27 | 32.11893 | -110.93852 | 2612 ft | 3 kts | 176° |
| 2026-04-24 01:27 | 32.11884 | -110.93849 | 2612 ft | 0 kts | 159° |
| 2026-04-24 01:30 | 32.11837 | -110.93821 | 2613 ft | 14 kts | 137° |
| 2026-04-24 01:31 | 32.11770 | -110.93796 | 2614 ft | 12 kts | 201° |
| 2026-04-24 01:31 | 32.11686 | -110.93778 | 2616 ft | 14 kts | 133° |
| 2026-04-24 01:31 | 32.11624 | -110.93699 | 2618 ft | 13 kts | 141° |
| 2026-04-24 01:31 | 32.11538 | -110.93607 | 2622 ft | 22 kts | 135° |
| 2026-04-24 01:32 | 32.11422 | -110.93473 | 2626 ft | 23 kts | 135° |
| 2026-04-24 01:32 | 32.11310 | -110.93341 | 2629 ft | 22 kts | 135° |
| 2026-04-24 01:32 | 32.11201 | -110.93213 | 2632 ft | 22 kts | 134° |
| 2026-04-24 01:32 | 32.11090 | -110.93083 | 2635 ft | 23 kts | 135° |
| 2026-04-24 01:33 | 32.10979 | -110.92954 | 2638 ft | 22 kts | 135° |
| 2026-04-24 01:33 | 32.10872 | -110.92828 | 2641 ft | 21 kts | 135° |
| 2026-04-24 01:33 | 32.10769 | -110.92705 | 2644 ft | 21 kts | 135° |
| 2026-04-24 01:33 | 32.10670 | -110.92588 | 2645 ft | 19 kts | 135° |
| 2026-04-24 01:34 | 32.10583 | -110.92487 | 2648 ft | 17 kts | 134° |
| 2026-04-24 01:34 | 32.10501 | -110.92391 | 2649 ft | 16 kts | 135° |
| 2026-04-24 01:34 | 32.10428 | -110.92304 | 2659 ft | 14 kts | 134° |
| 2026-04-24 01:34 | 32.10364 | -110.92235 | 2652 ft | 6 kts | 154° |
| 2026-04-24 01:35 | 32.10334 | -110.92236 | 2658 ft | 8 kts | 199° |
| 2026-04-24 01:35 | 32.10312 | -110.92252 | 2656 ft | 0 kts | 221° |
| 2026-04-24 01:36 | 32.10311 | -110.92254 | 2655 ft | 2 kts | 220° |
| 2026-04-24 01:36 | 32.10309 | -110.92256 | 2658 ft | 0 kts | 220° |
| 2026-04-24 01:37 | 32.10309 | -110.92255 | 2658 ft | 0 kts | 220° |
| 2026-04-24 01:38 | 32.10309 | -110.92256 | 2651 ft | 2 kts | 220° |
| 2026-04-24 01:38 | 32.10259 | -110.92333 | 2650 ft | 12 kts | 269° |
| 2026-04-24 01:38 | 32.10275 | -110.92373 | 2654 ft | 0 kts | 308° |
| 2026-04-24 01:39 | 32.10284 | -110.92385 | 2651 ft | 15 kts | 310° |
| 2026-04-24 01:39 | 32.10563 | -110.92715 | 2642 ft | 100 kts | 316° |
| 2026-04-24 01:40 | 32.11236 | -110.93498 | 2728 ft | 164 kts | 315° |
| 2026-04-24 01:40 | 32.12095 | -110.94445 | 3700 ft | 166 kts | 313° |
| 2026-04-24 01:40 | 32.12920 | -110.95417 | 4630 ft | 176 kts | 311° |
| 2026-04-24 01:40 | 32.13833 | -110.96518 | 5105 ft | 203 kts | 312° |
| 2026-04-24 01:41 | 32.14902 | -110.97799 | 5320 ft | 232 kts | 313° |
| 2026-04-24 01:41 | 32.16074 | -110.99189 | 5929 ft | 239 kts | 312° |
| 2026-04-24 01:41 | 32.17247 | -111.00575 | 6616 ft | 247 kts | 313° |
| 2026-04-24 01:41 | 32.18517 | -111.02078 | 7009 ft | 268 kts | 312° |
| 2026-04-24 01:42 | 32.19863 | -111.03646 | 7853 ft | 273 kts | 316° |
| 2026-04-24 01:42 | 32.21538 | -111.04729 | 8738 ft | 282 kts | 343° |
| 2026-04-24 01:42 | 32.23518 | -111.04771 | 9703 ft | 293 kts | 9° |
| 2026-04-24 01:42 | 32.25419 | -111.03773 | 10415 ft | 313 kts | 32° |
| 2026-04-24 01:43 | 32.27180 | -111.02069 | 10674 ft | 342 kts | 38° |
| 2026-04-24 01:43 | 32.28997 | -111.00094 | 10907 ft | 369 kts | 46° |
| 2026-04-24 01:43 | 32.30286 | -110.97411 | 11447 ft | 386 kts | 71° |
| 2026-04-24 01:43 | 32.30719 | -110.94265 | 12236 ft | 391 kts | 85° |
| 2026-04-24 01:44 | 32.30926 | -110.91022 | 12970 ft | 398 kts | 86° |
| 2026-04-24 01:44 | 32.31117 | -110.87732 | 13657 ft | 405 kts | 86° |
| 2026-04-24 01:44 | 32.31319 | -110.84370 | 14322 ft | 411 kts | 85° |
| 2026-04-24 01:44 | 32.31535 | -110.80988 | 15062 ft | 414 kts | 85° |
| 2026-04-24 01:45 | 32.31764 | -110.77573 | 15768 ft | 419 kts | 84° |
| 2026-04-24 01:45 | 32.32002 | -110.74132 | 16609 ft | 419 kts | 84° |
| 2026-04-24 01:45 | 32.32240 | -110.70685 | 17380 ft | 424 kts | 83° |
| 2026-04-24 01:45 | 32.32478 | -110.67192 | 18022 ft | 429 kts | 83° |
| 2026-04-24 01:46 | 32.32724 | -110.63703 | 18603 ft | 433 kts | 83° |
| 2026-04-24 01:46 | 32.32973 | -110.60130 | 19189 ft | 437 kts | 84° |
| 2026-04-24 01:46 | 32.33172 | -110.56530 | 19777 ft | 441 kts | 85° |
| 2026-04-24 01:46 | 32.33693 | -110.52941 | 20283 ft | 443 kts | 68° |
| 2026-04-24 01:47 | 32.34962 | -110.49633 | 20913 ft | 442 kts | 58° |
| 2026-04-24 01:47 | 32.36552 | -110.46514 | 21448 ft | 444 kts | 51° |
| 2026-04-24 01:47 | 32.38518 | -110.43684 | 21890 ft | 447 kts | 44° |
| 2026-04-24 01:47 | 32.40632 | -110.40959 | 22423 ft | 451 kts | 43° |
| 2026-04-24 01:48 | 32.42795 | -110.38249 | 22949 ft | 455 kts | 43° |
| 2026-04-24 01:48 | 32.44985 | -110.35517 | 23479 ft | 459 kts | 43° |
| 2026-04-24 01:48 | 32.47164 | -110.32783 | 23888 ft | 464 kts | 43° |
| 2026-04-24 01:48 | 32.49436 | -110.29990 | 24362 ft | 466 kts | 43° |
| 2026-04-24 01:49 | 32.51623 | -110.27206 | 24823 ft | 469 kts | 44° |
| 2026-04-24 01:49 | 32.53835 | -110.24337 | 25266 ft | 473 kts | 44° |
| 2026-04-24 01:49 | 32.56063 | -110.21432 | 25641 ft | 478 kts | 44° |
| 2026-04-24 01:49 | 32.58307 | -110.18508 | 26056 ft | 481 kts | 44° |
| 2026-04-24 01:50 | 32.60563 | -110.15572 | 26469 ft | 483 kts | 43° |
| 2026-04-24 01:50 | 32.62837 | -110.12619 | 26877 ft | 486 kts | 44° |
| 2026-04-24 01:50 | 32.65131 | -110.09643 | 27233 ft | 490 kts | 43° |
| 2026-04-24 01:50 | 32.67446 | -110.06641 | 27597 ft | 493 kts | 43° |
| 2026-04-24 01:51 | 32.69769 | -110.03628 | 28012 ft | 495 kts | 43° |
| 2026-04-24 01:51 | 32.72066 | -110.00646 | 28421 ft | 497 kts | 43° |
| 2026-04-24 01:51 | 32.74419 | -109.97591 | 28743 ft | 501 kts | 44° |
| 2026-04-24 01:51 | 32.76781 | -109.94521 | 29077 ft | 506 kts | 43° |
| 2026-04-24 01:52 | 32.79169 | -109.91416 | 29461 ft | 507 kts | 44° |
| 2026-04-24 01:52 | 32.81551 | -109.88312 | 29849 ft | 509 kts | 44° |
| 2026-04-24 01:52 | 32.83949 | -109.85185 | 30141 ft | 511 kts | 43° |
| 2026-04-24 01:52 | 32.86324 | -109.82084 | 30427 ft | 514 kts | 44° |
| 2026-04-24 01:53 | 32.88735 | -109.78934 | 30712 ft | 516 kts | 44° |
| 2026-04-24 01:53 | 32.91148 | -109.75776 | 31188 ft | 513 kts | 43° |
| 2026-04-24 01:53 | 32.93544 | -109.72638 | 31671 ft | 511 kts | 43° |
| 2026-04-24 01:53 | 32.95932 | -109.69508 | 32039 ft | 511 kts | 43° |
| 2026-04-24 01:54 | 32.98324 | -109.66374 | 32458 ft | 512 kts | 43° |
| 2026-04-24 01:54 | 32.99908 | -109.64296 | 32691 ft | 512 kts | 43° |
| 2026-04-24 01:54 | 33.02298 | -109.61156 | 33036 ft | 511 kts | 43° |
| 2026-04-24 01:54 | 33.04691 | -109.58012 | 33323 ft | 513 kts | 43° |
| 2026-04-24 01:55 | 33.07087 | -109.54863 | 33659 ft | 512 kts | 43° |
| 2026-04-24 01:55 | 33.10251 | -109.50701 | 34131 ft | 511 kts | 42° |
| 2026-04-24 01:55 | 33.11867 | -109.48573 | 34275 ft | 512 kts | 42° |
| 2026-04-24 01:55 | 33.14263 | -109.45417 | 34500 ft | 514 kts | 42° |
| 2026-04-24 01:56 | 33.16670 | -109.42242 | 34753 ft | 516 kts | 42° |
| 2026-04-24 01:56 | 33.19044 | -109.39105 | 35087 ft | 516 kts | 43° |
| 2026-04-24 01:56 | 33.21444 | -109.35922 | 35427 ft | 514 kts | 43° |
| 2026-04-24 01:56 | 33.23846 | -109.32742 | 35710 ft | 515 kts | 42° |
| 2026-04-24 01:57 | 33.26250 | -109.29560 | 35967 ft | 515 kts | 42° |
| 2026-04-24 01:57 | 33.28654 | -109.26379 | 36259 ft | 515 kts | 42° |
| 2026-04-24 01:57 | 33.31054 | -109.23198 | 36534 ft | 515 kts | 42° |
| 2026-04-24 01:57 | 33.33463 | -109.20003 | 36772 ft | 516 kts | 41° |
| 2026-04-24 01:58 | 33.35871 | -109.16808 | 36851 ft | 519 kts | 42° |
| 2026-04-24 01:58 | 33.40687 | -109.10395 | 36852 ft | 522 kts | 42° |
| 2026-04-24 01:59 | 33.45514 | -109.03954 | 36846 ft | 516 kts | 42° |
| 2026-04-24 01:59 | 33.50302 | -108.97557 | 36874 ft | 515 kts | 42° |
| 2026-04-24 02:00 | 33.55060 | -108.91196 | 36860 ft | 516 kts | 42° |
| 2026-04-24 02:00 | 33.59850 | -108.84780 | 36881 ft | 516 kts | 42° |
| 2026-04-24 02:01 | 33.64651 | -108.78334 | 36864 ft | 519 kts | 42° |
| 2026-04-24 02:01 | 33.69458 | -108.71864 | 36858 ft | 519 kts | 42° |
| 2026-04-24 02:02 | 33.74277 | -108.65369 | 36845 ft | 520 kts | 42° |
| 2026-04-24 02:02 | 33.79049 | -108.58926 | 36851 ft | 519 kts | 42° |
| 2026-04-24 02:03 | 33.86252 | -108.49179 | 36845 ft | 519 kts | 42° |
| 2026-04-24 02:03 | 33.91048 | -108.42673 | 36705 ft | 520 kts | 42° |
| 2026-04-24 02:04 | 33.93602 | -108.39628 | 36058 ft | 512 kts | 31° |
| 2026-04-24 02:04 | 33.96438 | -108.37083 | 35547 ft | 505 kts | 28° |
| 2026-04-24 02:04 | 33.99336 | -108.34681 | 34893 ft | 505 kts | 27° |
| 2026-04-24 02:04 | 34.02258 | -108.32325 | 34260 ft | 506 kts | 28° |
| 2026-04-24 02:05 | 34.05147 | -108.29973 | 33533 ft | 509 kts | 28° |
| 2026-04-24 02:05 | 34.08068 | -108.27549 | 32765 ft | 509 kts | 29° |
| 2026-04-24 02:05 | 34.10970 | -108.25095 | 32048 ft | 510 kts | 29° |
| 2026-04-24 02:05 | 34.13863 | -108.22618 | 31332 ft | 511 kts | 28° |
| 2026-04-24 02:06 | 34.16753 | -108.20126 | 30777 ft | 508 kts | 28° |
| 2026-04-24 02:06 | 34.19618 | -108.17647 | 30236 ft | 504 kts | 28° |
| 2026-04-24 02:06 | 34.22463 | -108.15186 | 29690 ft | 499 kts | 28° |
| 2026-04-24 02:06 | 34.25278 | -108.12753 | 29084 ft | 494 kts | 28° |
| 2026-04-24 02:07 | 34.28058 | -108.10350 | 28527 ft | 489 kts | 28° |
| 2026-04-24 02:07 | 34.30816 | -108.07966 | 27996 ft | 483 kts | 28° |
| 2026-04-24 02:07 | 34.33508 | -108.05639 | 27463 ft | 478 kts | 28° |
| 2026-04-24 02:07 | 34.36200 | -108.03311 | 26932 ft | 473 kts | 28° |
| 2026-04-24 02:08 | 34.38868 | -108.01002 | 26413 ft | 468 kts | 29° |
| 2026-04-24 02:08 | 34.41502 | -107.98721 | 25930 ft | 463 kts | 28° |
| 2026-04-24 02:08 | 34.44115 | -107.96455 | 25422 ft | 459 kts | 28° |
| 2026-04-24 02:08 | 34.46712 | -107.94202 | 24908 ft | 455 kts | 28° |
| 2026-04-24 02:09 | 34.49279 | -107.91974 | 24409 ft | 452 kts | 29° |
| 2026-04-24 02:09 | 34.51792 | -107.89790 | 23893 ft | 449 kts | 29° |
| 2026-04-24 02:09 | 34.54319 | -107.87592 | 23371 ft | 444 kts | 28° |
| 2026-04-24 02:09 | 34.56825 | -107.85419 | 22824 ft | 440 kts | 29° |
| 2026-04-24 02:10 | 34.59286 | -107.83271 | 22521 ft | 430 kts | 29° |
| 2026-04-24 02:10 | 34.61645 | -107.81087 | 22309 ft | 424 kts | 37° |
| 2026-04-24 02:10 | 34.63450 | -107.78226 | 22021 ft | 428 kts | 57° |
| 2026-04-24 02:10 | 34.64800 | -107.75102 | 21794 ft | 420 kts | 58° |
| 2026-04-24 02:11 | 34.66116 | -107.71958 | 21440 ft | 415 kts | 59° |
| 2026-04-24 02:11 | 34.67418 | -107.68842 | 21039 ft | 412 kts | 59° |
| 2026-04-24 02:11 | 34.68721 | -107.65752 | 20609 ft | 410 kts | 59° |
| 2026-04-24 02:11 | 34.70025 | -107.62685 | 20190 ft | 407 kts | 59° |
| 2026-04-24 02:12 | 34.71328 | -107.59640 | 19760 ft | 406 kts | 59° |
| 2026-04-24 02:12 | 34.72636 | -107.56592 | 19321 ft | 404 kts | 59° |
| 2026-04-24 02:12 | 34.73939 | -107.53558 | 18890 ft | 403 kts | 59° |
| 2026-04-24 02:12 | 34.75221 | -107.50575 | 18457 ft | 401 kts | 59° |
| 2026-04-24 02:13 | 34.76508 | -107.47575 | 18057 ft | 399 kts | 60° |
| 2026-04-24 02:13 | 34.77785 | -107.44591 | 17594 ft | 397 kts | 60° |
| 2026-04-24 02:13 | 34.79059 | -107.41611 | 17148 ft | 395 kts | 60° |
| 2026-04-24 02:13 | 34.80319 | -107.38661 | 16713 ft | 392 kts | 60° |
| 2026-04-24 02:14 | 34.81573 | -107.35726 | 16290 ft | 389 kts | 60° |
| 2026-04-24 02:14 | 34.82819 | -107.32808 | 15871 ft | 387 kts | 60° |
| 2026-04-24 02:14 | 34.84055 | -107.29909 | 15444 ft | 385 kts | 60° |
| 2026-04-24 02:14 | 34.85275 | -107.27026 | 15068 ft | 381 kts | 61° |
| 2026-04-24 02:15 | 34.86466 | -107.24149 | 14692 ft | 378 kts | 61° |
| 2026-04-24 02:15 | 34.87640 | -107.21299 | 14446 ft | 372 kts | 62° |
| 2026-04-24 02:15 | 34.88787 | -107.18515 | 14271 ft | 364 kts | 61° |
| 2026-04-24 02:15 | 34.89868 | -107.15805 | 14089 ft | 357 kts | 68° |
| 2026-04-24 02:16 | 34.90419 | -107.12865 | 13766 ft | 355 kts | 81° |
| 2026-04-24 02:16 | 34.90756 | -107.09888 | 13385 ft | 354 kts | 82° |
| 2026-04-24 02:16 | 34.91070 | -107.06914 | 13031 ft | 352 kts | 83° |
| 2026-04-24 02:16 | 34.91385 | -107.03958 | 12657 ft | 351 kts | 81° |
| 2026-04-24 02:17 | 34.91710 | -107.01020 | 12320 ft | 345 kts | 81° |
| 2026-04-24 02:17 | 34.92034 | -106.98141 | 11956 ft | 339 kts | 81° |
| 2026-04-24 02:17 | 34.92352 | -106.95365 | 11623 ft | 332 kts | 80° |
| 2026-04-24 02:17 | 34.92674 | -106.92598 | 11364 ft | 323 kts | 80° |
| 2026-04-24 02:18 | 34.92981 | -106.89976 | 11313 ft | 303 kts | 80° |
| 2026-04-24 02:18 | 34.93271 | -106.87500 | 11285 ft | 287 kts | 79° |
| 2026-04-24 02:18 | 34.93548 | -106.85148 | 11208 ft | 272 kts | 79° |
| 2026-04-24 02:18 | 34.93809 | -106.82926 | 11113 ft | 259 kts | 79° |
| 2026-04-24 02:19 | 34.94059 | -106.80802 | 11007 ft | 246 kts | 79° |
| 2026-04-24 02:19 | 34.94297 | -106.78776 | 10801 ft | 239 kts | 78° |
| 2026-04-24 02:19 | 34.94536 | -106.76753 | 10378 ft | 243 kts | 78° |
| 2026-04-24 02:19 | 34.94782 | -106.74665 | 10060 ft | 250 kts | 78° |
| 2026-04-24 02:20 | 34.95030 | -106.72542 | 10044 ft | 256 kts | 78° |
| 2026-04-24 02:20 | 34.95275 | -106.70384 | 9945 ft | 265 kts | 80° |
| 2026-04-24 02:20 | 34.95387 | -106.68092 | 9501 ft | 272 kts | 85° |
| 2026-04-24 02:20 | 34.95445 | -106.65813 | 9111 ft | 265 kts | 85° |
| 2026-04-24 02:21 | 34.95659 | -106.63643 | 8790 ft | 249 kts | 68° |
| 2026-04-24 02:21 | 34.96176 | -106.61754 | 8665 ft | 219 kts | 66° |
| 2026-04-24 02:21 | 34.96622 | -106.60041 | 8322 ft | 203 kts | 66° |
| 2026-04-24 02:21 | 34.97027 | -106.58444 | 8115 ft | 194 kts | 67° |
| 2026-04-24 02:22 | 34.97422 | -106.56872 | 7944 ft | 195 kts | 67° |
| 2026-04-24 02:22 | 34.97822 | -106.55283 | 7724 ft | 196 kts | 66° |
| 2026-04-24 02:22 | 34.98221 | -106.53706 | 7514 ft | 192 kts | 66° |
| 2026-04-24 02:22 | 34.98717 | -106.52196 | 7185 ft | 192 kts | 53° |
| 2026-04-24 02:23 | 34.99695 | -106.51075 | 6779 ft | 197 kts | 19° |
| 2026-04-24 02:23 | 35.00958 | -106.50652 | 6947 ft | 179 kts | 3° |
| 2026-04-24 02:23 | 35.02142 | -106.50476 | 7092 ft | 169 kts | 354° |
| 2026-04-24 02:23 | 35.03310 | -106.50718 | 6902 ft | 176 kts | 334° |
| 2026-04-24 02:24 | 35.04148 | -106.51753 | 6552 ft | 176 kts | 292° |
| 2026-04-24 02:24 | 35.04359 | -106.53193 | 6192 ft | 172 kts | 276° |
| 2026-04-24 02:24 | 35.04396 | -106.54579 | 5910 ft | 155 kts | 268° |
| 2026-04-24 02:24 | 35.04386 | -106.55865 | 5642 ft | 148 kts | 269° |
| 2026-04-24 02:25 | 35.04395 | -106.57102 | 5449 ft | 145 kts | 272° |
| 2026-04-24 02:25 | 35.04403 | -106.58340 | 5331 ft | 145 kts | 271° |
| 2026-04-24 02:25 | 35.04417 | -106.59490 | 5323 ft | 103 kts | 271° |
| 2026-04-24 02:25 | 35.04423 | -106.59991 | 5326 ft | 48 kts | 276° |
| 2026-04-24 02:26 | 35.04541 | -106.60328 | 5320 ft | 38 kts | 300° |
| 2026-04-24 02:26 | 35.04578 | -106.60602 | 5325 ft | 31 kts | 270° |
| 2026-04-24 02:26 | 35.04579 | -106.60853 | 5325 ft | 29 kts | 270° |
| 2026-04-24 02:26 | 35.04580 | -106.61088 | 5319 ft | 27 kts | 270° |
| 2026-04-24 02:27 | 35.04579 | -106.61306 | 5321 ft | 24 kts | 260° |
| 2026-04-24 02:27 | 35.04556 | -106.61487 | 5311 ft | 11 kts | 271° |
| 2026-04-24 02:27 | 35.04567 | -106.61554 | 5325 ft | 3 kts | 328° |
| 2026-04-24 02:27 | 35.04585 | -106.61570 | 5326 ft | 3 kts | 327° |
| 2026-04-24 02:28 | 35.04622 | -106.61586 | 5325 ft | 10 kts | 357° |
| 2026-04-24 02:28 | 35.04683 | -106.61593 | 5331 ft | 4 kts | 15° |
| 2026-04-24 02:28 | 35.04697 | -106.61588 | 5330 ft | 0 kts | 19° |
| 2026-04-24 02:29 | 35.04695 | -106.61588 | 5331 ft | 0 kts | 19° |
| 2026-04-24 02:29 | 35.04695 | -106.61589 | 5331 ft | 0 kts | 19° |